Time;durP1;ratioP1;P1;durP2;ratioP2;P2;SDS_P1;SDS_P2;PMS_P1;PMS_P2;Temp;Humidity;BMP_temperature;BMP_pressure;BME280_temperature;BME280_humidity;BME280_pressure;Samples;Min_cycle;Max_cycle;Signal;HPM_P1;HPM_P2
2023/08/08 00:00:49;;;;;;;6.57;3.10;;;;;;;18.78;72.96;98962.13;5085345;28;20046;-83
2023/08/08 00:03:34;;;;;;;6.20;2.92;;;;;;;18.65;72.81;98942.84;5080445;28;21748;-83
2023/08/08 00:06:18;;;;;;;5.65;2.65;;;;;;;19.19;71.50;98967.84;5078395;28;20174;-82
2023/08/08 00:09:03;;;;;;;3.42;2.67;;;;;;;19.23;71.47;98957.50;5083819;28;20055;-82
2023/08/08 00:11:48;;;;;;;4.57;2.53;;;;;;;19.11;71.00;98949.69;5083446;28;20094;-82
2023/08/08 00:14:32;;;;;;;6.55;2.67;;;;;;;18.95;71.31;98954.84;5083021;28;20062;-82
2023/08/08 00:17:16;;;;;;;7.72;3.08;;;;;;;18.95;71.17;98957.50;5081892;28;20469;-81
2023/08/08 00:20:01;;;;;;;7.05;2.60;;;;;;;19.54;70.34;98984.34;5079175;28;20055;-83
2023/08/08 00:22:45;;;;;;;8.60;2.97;;;;;;;19.06;70.71;98989.53;5084294;28;20493;-84
2023/08/08 00:25:29;;;;;;;5.57;2.58;;;;;;;18.99;70.97;98981.78;5084585;28;20444;-83
2023/08/08 00:28:13;;;;;;;5.05;2.42;;;;;;;19.16;70.59;98986.97;5076866;28;20069;-84
2023/08/08 00:30:57;;;;;;;7.63;2.80;;;;;;;19.23;70.74;98989.44;5084138;28;20039;-83
2023/08/08 00:33:41;;;;;;;8.45;2.85;;;;;;;19.35;70.17;98974.09;5079261;28;20050;-85
2023/08/08 00:36:25;;;;;;;3.92;2.40;;;;;;;19.49;69.45;98969.16;5086439;28;20051;-85
2023/08/08 00:39:09;;;;;;;7.25;2.80;;;;;;;19.68;69.09;98982.84;5083622;28;20042;-85
2023/08/08 00:41:54;;;;;;;8.95;2.53;;;;;;;19.40;69.91;98981.31;5082672;28;20043;-85
2023/08/08 00:44:38;;;;;;;8.48;2.60;;;;;;;19.30;69.94;98990.03;5083404;28;20539;-82
2023/08/08 00:47:22;;;;;;;4.72;2.63;;;;;;;19.17;70.28;98987.78;5086725;28;20035;-82
2023/08/08 00:50:07;;;;;;;4.97;2.28;;;;;;;19.19;70.57;98989.13;5079047;28;20122;-82
2023/08/08 00:52:52;;;;;;;7.70;3.10;;;;;;;19.49;70.14;98990.44;5080028;28;20111;-85
2023/08/08 00:55:37;;;;;;;5.38;2.63;;;;;;;19.32;70.04;98987.91;5077335;28;20063;-85
2023/08/08 00:58:21;;;;;;;6.28;3.00;;;;;;;19.21;70.90;98988.88;5084498;28;20039;-82
2023/08/08 01:01:06;;;;;;;4.15;2.42;;;;;;;19.05;71.61;98980.75;5075879;28;20529;-85
2023/08/08 01:03:52;;;;;;;6.47;2.70;;;;;;;19.21;71.27;98991.53;5082060;28;20051;-85
2023/08/08 01:07:00;;;;;;;5.40;2.65;;;;;;;19.07;71.63;98983.97;5080863;28;20063;-85
2023/08/08 01:10:09;;;;;;;3.38;2.60;;;;;;;19.43;71.06;98964.03;5086663;28;20147;-85
2023/08/08 01:12:59;;;;;;;8.15;3.10;;;;;;;19.26;71.46;98959.66;5077739;28;20081;-82
2023/08/08 01:15:46;;;;;;;4.15;2.55;;;;;;;19.63;70.52;98971.34;5080098;28;20101;-84
2023/08/08 01:18:31;;;;;;;7.10;2.63;;;;;;;19.49;71.22;98968.34;5075905;28;20079;-82
2023/08/08 01:21:16;;;;;;;4.22;2.60;;;;;;;19.41;71.52;98964.28;5078363;28;20529;-82
2023/08/08 01:24:27;;;;;;;3.88;2.40;;;;;;;19.26;71.73;98971.13;5087623;28;20129;-83
2023/08/08 01:27:11;;;;;;;4.47;2.38;;;;;;;19.12;72.40;98972.59;5076801;28;20085;-82
2023/08/08 01:29:55;;;;;;;4.43;2.13;;;;;;;19.08;72.61;98963.50;5082458;28;20042;-83
2023/08/08 01:32:39;;;;;;;4.47;2.00;;;;;;;19.07;73.06;98962.69;5081592;28;20127;-82
2023/08/08 01:35:26;;;;;;;4.47;2.05;;;;;;;19.16;72.87;98948.91;5087121;28;20055;-83
2023/08/08 01:38:17;;;;;;;4.75;2.20;;;;;;;19.26;72.57;98955.16;5086602;28;20078;-82
2023/08/08 01:41:04;;;;;;;4.60;2.33;;;;;;;19.12;73.32;98948.63;5080262;28;20109;-83
2023/08/08 01:43:49;;;;;;;2.83;2.50;;;;;;;19.20;72.91;98953.47;5080282;28;20031;-83
2023/08/08 01:46:34;;;;;;;3.08;2.00;;;;;;;19.25;73.24;98952.72;5080243;28;20071;-83
2023/08/08 01:49:18;;;;;;;2.67;2.40;;;;;;;19.36;73.21;98965.06;5080417;28;20039;-83
2023/08/08 01:52:02;;;;;;;2.40;2.20;;;;;;;19.40;72.69;98966.16;5082440;28;20101;-82
2023/08/08 01:54:46;;;;;;;2.13;1.73;;;;;;;19.11;72.78;98976.28;5075378;28;20040;-82
2023/08/08 01:57:30;;;;;;;2.58;2.00;;;;;;;19.39;72.39;98963.75;5083895;28;20059;-81
2023/08/08 02:00:14;;;;;;;3.33;1.90;;;;;;;19.83;71.23;98958.16;5079909;28;20123;-82
2023/08/08 02:02:59;;;;;;;2.30;1.90;;;;;;;20.15;70.79;98964.50;5080202;28;20089;-82
2023/08/08 02:05:43;;;;;;;3.25;1.90;;;;;;;20.36;70.42;98953.94;5078367;28;20086;-81
2023/08/08 02:08:27;;;;;;;2.08;1.88;;;;;;;20.11;70.46;98966.88;5073253;28;20054;-82
2023/08/08 02:11:14;;;;;;;2.58;2.00;;;;;;;20.24;70.45;98946.13;5081723;28;20512;-82
2023/08/08 02:13:58;;;;;;;2.97;2.10;;;;;;;20.21;70.17;98941.31;5086549;28;20119;-82
2023/08/08 02:16:42;;;;;;;2.75;2.03;;;;;;;20.52;69.54;98936.09;5080844;28;20032;-83
2023/08/08 02:19:26;;;;;;;3.45;1.98;;;;;;;20.51;69.72;98934.50;5090327;28;20402;-83
2023/08/08 02:22:10;;;;;;;3.42;2.33;;;;;;;20.76;69.14;98930.28;5090667;28;20178;-82
2023/08/08 02:24:54;;;;;;;5.82;2.05;;;;;;;20.74;68.95;98938.56;5088339;28;20044;-83
2023/08/08 02:27:38;;;;;;;2.85;2.13;;;;;;;20.82;68.61;98940.72;5085171;28;20115;-83
2023/08/08 02:30:22;;;;;;;4.28;2.53;;;;;;;20.78;68.89;98933.47;5086987;28;20464;-83
2023/08/08 02:33:06;;;;;;;2.72;2.45;;;;;;;20.72;68.79;98938.00;5080575;28;20075;-83
2023/08/08 02:35:50;;;;;;;2.92;2.60;;;;;;;20.78;68.85;98944.97;5082315;28;20121;-83
2023/08/08 02:38:34;;;;;;;6.57;2.70;;;;;;;20.64;69.23;98939.34;5084608;28;20066;-83
2023/08/08 02:41:18;;;;;;;4.20;3.03;;;;;;;20.64;69.42;98941.19;5083894;28;20036;-82
2023/08/08 02:44:02;;;;;;;2.60;2.40;;;;;;;20.48;69.65;98927.81;5083084;28;20115;-83
2023/08/08 02:46:46;;;;;;;5.78;3.65;;;;;;;20.40;69.82;98931.00;5080957;28;20059;-83
2023/08/08 02:49:30;;;;;;;6.20;3.78;;;;;;;20.31;70.22;98920.06;5088149;28;20035;-83
2023/08/08 02:52:14;;;;;;;3.65;2.83;;;;;;;20.58;69.44;98928.94;5086101;28;20036;-83
2023/08/08 02:54:59;;;;;;;6.28;3.60;;;;;;;20.33;70.15;98928.59;5088700;28;20047;-83
2023/08/08 02:57:43;;;;;;;5.22;3.05;;;;;;;20.40;70.20;98928.34;5080393;28;20079;-83
2023/08/08 03:00:26;;;;;;;6.72;3.28;;;;;;;20.39;69.90;98911.53;5082955;28;20469;-82
2023/08/08 03:03:10;;;;;;;4.72;3.25;;;;;;;20.42;69.67;98920.88;5084933;28;20503;-82
2023/08/08 03:05:54;;;;;;;4.38;3.22;;;;;;;20.54;69.41;98918.78;5080336;28;20394;-83
2023/08/08 03:08:38;;;;;;;9.90;3.47;;;;;;;20.33;70.26;98917.94;5087549;28;20406;-84
2023/08/08 03:11:22;;;;;;;9.93;3.70;;;;;;;20.35;69.78;98921.13;5084231;28;20071;-83
2023/08/08 03:14:08;;;;;;;6.82;3.60;;;;;;;20.35;69.62;98912.34;5081934;28;20035;-83
2023/08/08 03:16:52;;;;;;;5.72;3.45;;;;;;;20.31;69.77;98909.41;5085992;28;20425;-83
2023/08/08 03:19:36;;;;;;;4.55;3.33;;;;;;;20.46;69.38;98905.19;5080123;28;20043;-83
2023/08/08 03:22:20;;;;;;;6.38;3.25;;;;;;;20.29;69.36;98911.53;5083435;28;20043;-84
2023/08/08 03:25:04;;;;;;;4.85;2.50;;;;;;;20.08;69.36;98902.66;5077553;28;20178;-84
2023/08/08 03:27:48;;;;;;;6.10;3.05;;;;;;;19.88;69.34;98906.78;5083846;28;20047;-83
2023/08/08 03:30:32;;;;;;;4.82;3.00;;;;;;;20.15;68.53;98897.09;5081641;28;20044;-83
2023/08/08 03:33:16;;;;;;;5.97;3.00;;;;;;;20.22;68.21;98894.97;5078618;28;20379;-83
2023/08/08 03:36:00;;;;;;;4.80;3.00;;;;;;;19.87;68.94;98904.41;5080208;28;20131;-82
2023/08/08 03:38:45;;;;;;;4.90;2.92;;;;;;;19.89;68.99;98908.41;5080595;28;20086;-82
2023/08/08 03:41:29;;;;;;;5.00;2.80;;;;;;;19.74;69.55;98906.47;5079908;28;20047;-83
2023/08/08 03:44:13;;;;;;;5.40;2.92;;;;;;;19.72;69.88;98907.78;5087580;28;20394;-83
2023/08/08 03:46:57;;;;;;;5.60;3.30;;;;;;;19.94;69.60;98910.31;5086013;28;20082;-82
2023/08/08 03:49:41;;;;;;;5.05;3.60;;;;;;;20.03;69.33;98903.41;5081806;28;20457;-82
2023/08/08 03:52:25;;;;;;;8.77;3.53;;;;;;;19.83;70.24;98904.91;5082467;28;20047;-83
2023/08/08 03:55:09;;;;;;;6.72;3.30;;;;;;;20.16;69.32;98910.16;5080101;28;20406;-83
2023/08/08 03:57:53;;;;;;;9.18;3.75;;;;;;;19.50;69.89;98906.06;5081914;28;20495;-82
2023/08/08 04:00:39;;;;;;;8.05;3.33;;;;;;;20.45;68.27;98898.25;5080632;28;20048;-82
2023/08/08 04:03:23;;;;;;;7.35;3.70;;;;;;;20.23;68.75;98896.56;5085816;28;20390;-83
2023/08/08 04:06:07;;;;;;;5.88;3.53;;;;;;;20.24;69.04;98892.84;5080621;28;20462;-83
2023/08/08 04:08:51;;;;;;;5.88;3.50;;;;;;;20.14;69.07;98890.16;5077592;28;20136;-83
2023/08/08 04:11:35;;;;;;;5.95;3.00;;;;;;;20.04;69.20;98893.56;5083300;28;20034;-85
2023/08/08 04:14:20;;;;;;;4.32;2.85;;;;;;;19.73;69.89;98888.06;5078150;28;20043;-84
2023/08/08 04:17:04;;;;;;;5.18;3.28;;;;;;;20.18;69.22;98880.56;5080969;28;20504;-82
2023/08/08 04:19:49;;;;;;;7.13;3.33;;;;;;;20.53;68.04;98884.38;5080801;28;20067;-84
2023/08/08 04:22:33;;;;;;;8.18;3.28;;;;;;;20.08;68.87;98884.00;5082563;28;20070;-82
2023/08/08 04:25:17;;;;;;;5.28;3.35;;;;;;;20.25;69.08;98889.91;5084739;28;20398;-85
2023/08/08 04:28:02;;;;;;;7.90;3.20;;;;;;;20.50;68.55;98891.03;5080748;28;20547;-83
2023/08/08 04:30:45;;;;;;;5.47;3.25;;;;;;;20.66;68.27;98891.88;5083153;28;20039;-83
2023/08/08 04:33:29;;;;;;;9.80;4.40;;;;;;;20.61;68.44;98894.53;5082512;28;20129;-82
2023/08/08 04:36:13;;;;;;;6.13;3.83;;;;;;;20.55;68.60;98898.25;5079611;28;20567;-82
2023/08/08 04:38:57;;;;;;;6.43;4.35;;;;;;;20.72;68.67;98891.88;5083788;28;20043;-85
2023/08/08 04:41:41;;;;;;;5.70;4.10;;;;;;;20.45;69.22;98882.25;5082897;28;20054;-82
2023/08/08 04:44:25;;;;;;;7.38;4.68;;;;;;;20.58;69.05;98887.06;5080260;28;20094;-82
2023/08/08 04:47:09;;;;;;;7.10;4.03;;;;;;;20.66;69.29;98883.88;5079864;28;20035;-85
2023/08/08 04:49:53;;;;;;;9.13;4.53;;;;;;;20.60;69.35;98882.25;5080312;28;20559;-82
2023/08/08 04:52:37;;;;;;;6.72;4.10;;;;;;;20.76;68.95;98876.94;5076879;28;20101;-81
2023/08/08 04:55:21;;;;;;;8.95;4.47;;;;;;;20.32;69.63;98889.69;5073188;28;20115;-82
2023/08/08 04:58:05;;;;;;;10.27;4.68;;;;;;;20.74;69.22;98882.56;5074541;28;20051;-85
2023/08/08 05:00:50;;;;;;;8.30;4.70;;;;;;;20.44;70.17;98886.75;5082889;28;20093;-82
2023/08/08 05:03:34;;;;;;;7.28;4.53;;;;;;;20.75;69.77;98886.00;5084516;28;20093;-82
2023/08/08 05:06:18;;;;;;;10.07;4.43;;;;;;;20.63;69.78;98892.38;5080257;28;20047;-84
2023/08/08 05:09:03;;;;;;;6.95;4.45;;;;;;;20.76;69.42;98898.28;5074332;28;20051;-83
2023/08/08 05:11:47;;;;;;;7.65;4.93;;;;;;;20.59;70.08;98898.53;5080865;28;20501;-83
2023/08/08 05:14:31;;;;;;;11.10;4.88;;;;;;;20.73;69.70;98898.81;5081195;28;20066;-83
2023/08/08 05:17:15;;;;;;;8.07;5.03;;;;;;;20.56;70.19;98897.19;5077932;28;20043;-84
2023/08/08 05:19:59;;;;;;;9.15;5.53;;;;;;;20.72;70.39;98895.34;5084047;28;20105;-83
2023/08/08 05:22:44;;;;;;;9.68;5.35;;;;;;;21.33;69.27;98898.31;5078261;28;20485;-82
2023/08/08 05:25:28;;;;;;;12.18;5.40;;;;;;;20.96;70.28;98887.66;5083382;28;20051;-82
2023/08/08 05:28:12;;;;;;;9.18;5.82;;;;;;;21.02;70.43;98890.31;5074663;28;20043;-86
2023/08/08 05:30:56;;;;;;;7.68;6.32;;;;;;;21.00;70.76;98868.44;5081992;28;20493;-84
2023/08/08 05:33:40;;;;;;;12.07;7.20;;;;;;;21.16;70.69;98864.69;5073547;28;20079;-83
2023/08/08 05:36:25;;;;;;;13.15;7.20;;;;;;;20.71;71.68;98864.41;5081292;28;20043;-84
2023/08/08 05:39:09;;;;;;;9.80;7.32;;;;;;;20.61;72.15;98854.53;5082712;28;20125;-83
2023/08/08 05:41:53;;;;;;;11.20;7.32;;;;;;;20.95;71.75;98869.25;5080455;28;20090;-81
2023/08/08 05:44:37;;;;;;;8.88;6.95;;;;;;;20.88;72.07;98871.38;5080435;28;20157;-83
2023/08/08 05:47:21;;;;;;;9.93;7.55;;;;;;;20.93;72.07;98888.19;5076771;28;20047;-82
2023/08/08 05:50:06;;;;;;;9.65;7.38;;;;;;;20.96;72.69;98882.31;5079838;28;20038;-82
2023/08/08 05:52:50;;;;;;;11.73;7.88;;;;;;;21.02;71.80;98874.28;5077706;28;20055;-82
2023/08/08 05:55:34;;;;;;;9.98;7.10;;;;;;;21.07;71.99;98875.09;5082728;28;20047;-82
2023/08/08 05:58:19;;;;;;;10.32;7.05;;;;;;;21.20;71.57;98875.63;5074169;28;20094;-82
2023/08/08 06:01:09;;;;;;;11.32;7.00;;;;;;;20.92;72.17;98865.25;5079594;28;20047;-82
2023/08/08 06:03:53;;;;;;;11.30;6.47;;;;;;;21.06;72.45;98876.16;5079243;28;20084;-81
2023/08/08 06:06:37;;;;;;;15.55;7.30;;;;;;;21.35;71.57;98872.13;5079640;28;20059;-82
2023/08/08 06:09:22;;;;;;;12.38;6.70;;;;;;;21.37;71.83;98875.31;5075997;28;20094;-81
2023/08/08 06:12:08;;;;;;;9.25;6.25;;;;;;;21.64;71.60;98874.22;5076546;28;20123;-81
2023/08/08 06:14:52;;;;;;;7.97;6.07;;;;;;;21.92;70.83;98872.00;5075768;28;20039;-83
2023/08/08 06:17:36;;;;;;;11.85;6.20;;;;;;;21.74;71.11;98868.06;5077118;28;20405;-83
2023/08/08 06:20:21;;;;;;;8.13;6.00;;;;;;;21.71;71.30;98864.06;5079619;28;20121;-83
2023/08/08 06:23:05;;;;;;;8.02;6.00;;;;;;;22.11;70.36;98866.84;5077610;28;20043;-85
2023/08/08 06:25:49;;;;;;;7.45;5.53;;;;;;;21.48;71.33;98870.75;5081216;28;20047;-84
2023/08/08 06:28:33;;;;;;;11.23;5.88;;;;;;;21.88;70.74;98868.28;5086439;28;20073;-83
2023/08/08 06:31:18;;;;;;;7.47;5.60;;;;;;;22.16;70.30;98863.31;5073014;28;20094;-82
2023/08/08 06:34:02;;;;;;;9.43;5.35;;;;;;;22.14;69.89;98866.28;5075322;28;20359;-85
2023/08/08 06:36:46;;;;;;;7.50;5.55;;;;;;;21.94;70.40;98875.19;5078742;28;20156;-83
2023/08/08 06:39:31;;;;;;;5.50;4.88;;;;;;;22.09;70.04;98872.44;5078280;28;20059;-82
2023/08/08 06:42:15;;;;;;;8.25;5.20;;;;;;;22.39;69.60;98873.34;5077150;28;20092;-83
2023/08/08 06:45:00;;;;;;;8.82;5.45;;;;;;;22.48;69.63;98875.47;5076893;28;20563;-82
2023/08/08 06:47:43;;;;;;;7.28;5.72;;;;;;;22.74;68.97;98875.28;5080489;28;20047;-83
2023/08/08 06:50:27;;;;;;;5.47;4.97;;;;;;;23.34;68.26;98871.56;5077177;28;20543;-84
2023/08/08 06:53:14;;;;;;;6.38;5.57;;;;;;;23.63;67.33;98886.81;5084871;28;20093;-84
2023/08/08 06:55:59;;;;;;;6.90;6.07;;;;;;;23.33;67.68;98883.38;5080427;28;20051;-82
2023/08/08 06:58:43;;;;;;;12.30;7.20;;;;;;;23.01;67.85;98882.03;5084925;28;20551;-81
2023/08/08 07:01:27;;;;;;;7.55;6.32;;;;;;;23.25;67.71;98874.88;5081367;28;20071;-84
2023/08/08 07:04:11;;;;;;;11.07;7.10;;;;;;;22.86;69.46;98875.72;5077362;28;20038;-82
2023/08/08 07:06:55;;;;;;;10.35;7.78;;;;;;;23.02;69.23;98873.72;5078315;28;20089;-84
2023/08/08 07:09:39;;;;;;;;;;;;;;;23.08;68.92;98877.16;5076794;28;20058;-85
2023/08/08 07:12:23;;;;;;;9.13;7.90;;;;;;;22.38;70.07;98871.75;5079934;28;19919;-84
2023/08/08 07:15:07;;;;;;;8.45;7.63;;;;;;;23.09;69.02;98881.44;5085351;28;20040;-85
2023/08/08 07:17:52;;;;;;;9.63;7.35;;;;;;;23.33;68.43;98883.38;5081834;28;20923;-83
2023/08/08 07:20:36;;;;;;;10.23;7.68;;;;;;;23.18;68.84;98886.97;5078662;28;20105;-84
2023/08/08 07:23:21;;;;;;;9.30;7.35;;;;;;;22.92;68.15;98885.31;5083181;28;20047;-86
2023/08/08 07:26:05;;;;;;;8.45;7.35;;;;;;;23.32;68.17;98876.41;5083809;28;20098;-85
2023/08/08 07:28:49;;;;;;;12.65;7.38;;;;;;;23.64;67.89;98869.66;5085563;28;20122;-83
2023/08/08 07:31:33;;;;;;;;;;;;;;;24.06;67.62;98883.38;5081287;28;20563;-84
2023/08/08 07:34:17;;;;;;;7.45;6.50;;;;;;;23.48;67.98;98883.22;5084527;28;19969;-83
2023/08/08 07:37:02;;;;;;;7.43;5.90;;;;;;;23.49;68.07;98879.47;5080009;28;20393;-84
2023/08/08 07:39:51;;;;;;;6.68;6.07;;;;;;;23.99;67.59;98882.91;5086636;28;20513;-84
2023/08/08 07:42:35;;;;;;;6.28;5.47;;;;;;;23.94;66.94;98870.38;5083245;28;20091;-84
2023/08/08 07:45:19;;;;;;;7.43;5.07;;;;;;;23.79;66.75;98866.00;5074621;28;20051;-82
2023/08/08 07:48:06;;;;;;;6.20;5.60;;;;;;;24.44;65.78;98869.19;5081378;28;20071;-85
2023/08/08 07:50:50;;;;;;;8.80;6.22;;;;;;;24.76;65.32;98878.38;5081773;28;20035;-82
2023/08/08 07:53:34;;;;;;;7.05;6.40;;;;;;;24.97;65.00;98878.84;5081047;28;20043;-82
2023/08/08 07:56:18;;;;;;;7.60;6.18;;;;;;;24.31;65.09;98876.09;5083103;28;20035;-83
2023/08/08 07:59:03;;;;;;;6.93;6.13;;;;;;;24.47;65.51;98876.66;5082760;28;20128;-83
2023/08/08 08:01:47;;;;;;;10.93;6.57;;;;;;;24.15;65.11;98870.94;5081044;28;20524;-86
2023/08/08 08:04:31;;;;;;;10.10;6.80;;;;;;;24.44;65.25;98874.56;5084919;28;20469;-83
2023/08/08 08:07:15;;;;;;;10.77;6.80;;;;;;;23.98;65.90;98866.03;5081708;28;20055;-84
2023/08/08 08:09:59;;;;;;;7.93;6.68;;;;;;;24.48;65.50;98872.88;5081337;28;20050;-85
2023/08/08 08:12:43;;;;;;;8.20;6.50;;;;;;;24.42;65.82;98868.69;5081717;28;20483;-83
2023/08/08 08:15:27;;;;;;;8.38;6.40;;;;;;;24.35;65.36;98864.47;5081941;28;20107;-84
2023/08/08 08:18:12;;;;;;;7.93;7.10;;;;;;;24.46;65.31;98862.44;5084783;28;20040;-85
2023/08/08 08:20:56;;;;;;;9.90;6.05;;;;;;;24.92;64.09;98865.53;5080395;28;20048;-88
2023/08/08 08:23:40;;;;;;;9.18;6.47;;;;;;;24.65;64.25;98862.44;5081564;28;20096;-84
2023/08/08 08:26:24;;;;;;;7.53;6.75;;;;;;;24.15;65.15;98867.44;5078900;28;20075;-84
2023/08/08 08:29:08;;;;;;;7.55;6.40;;;;;;;24.02;65.92;98867.09;5087080;28;20042;-86
2023/08/08 08:31:52;;;;;;;8.10;6.40;;;;;;;23.68;66.22;98860.78;5082719;28;20070;-85
2023/08/08 08:34:36;;;;;;;9.02;6.82;;;;;;;24.01;65.54;98870.81;5087928;28;20035;-84
2023/08/08 08:37:20;;;;;;;9.43;6.43;;;;;;;24.02;65.71;98861.72;5080143;28;20051;-84
2023/08/08 08:40:05;;;;;;;8.43;6.07;;;;;;;24.57;64.53;98865.78;5082906;28;20050;-84
2023/08/08 08:42:50;;;;;;;6.80;6.03;;;;;;;24.71;64.04;98854.28;5082053;28;20101;-84
2023/08/08 08:45:38;;;;;;;9.52;6.25;;;;;;;24.79;64.54;98842.94;5079451;28;20054;-84
2023/08/08 08:48:22;;;;;;;6.75;6.10;;;;;;;24.53;63.89;98843.28;5089698;28;20093;-87
2023/08/08 08:51:06;;;;;;;8.82;5.43;;;;;;;24.68;62.93;98845.75;5084416;28;20108;-85
2023/08/08 08:53:51;;;;;;;8.63;5.93;;;;;;;25.37;62.63;98846.22;5082730;28;20046;-85
2023/08/08 08:56:35;;;;;;;9.95;6.43;;;;;;;25.07;62.80;98856.41;5083452;28;20136;-85
2023/08/08 08:59:19;;;;;;;6.25;5.55;;;;;;;24.54;63.22;98850.25;5079400;28;20039;-84
2023/08/08 09:02:03;;;;;;;6.00;5.40;;;;;;;25.22;62.64;98840.03;5089182;28;20078;-86
2023/08/08 09:04:48;;;;;;;6.38;4.80;;;;;;;24.70;62.59;98841.97;5083313;28;20169;-87
2023/08/08 09:07:35;;;;;;;4.72;3.85;;;;;;;24.39;62.62;98841.38;5077063;28;20050;-87
2023/08/08 09:10:20;;;;;;;4.47;4.07;;;;;;;24.76;62.46;98838.94;5081907;28;20043;-86
2023/08/08 09:13:04;;;;;;;4.32;4.00;;;;;;;25.12;61.26;98834.81;5084239;28;20501;-87
2023/08/08 09:15:52;;;;;;;4.82;4.30;;;;;;;25.44;61.13;98843.91;5079562;28;20113;-88
2023/08/08 09:18:38;;;;;;;5.90;3.97;;;;;;;25.45;61.70;98824.00;5081102;28;20059;-88
2023/08/08 09:21:22;;;;;;;5.70;3.75;;;;;;;25.51;60.90;98828.22;5080761;28;20038;-88
2023/08/08 09:24:06;;;;;;;3.92;3.58;;;;;;;25.57;60.65;98830.81;5076569;28;20489;-88
2023/08/08 09:26:52;;;;;;;3.47;3.15;;;;;;;25.59;59.44;98817.88;5083423;28;20047;-83
2023/08/08 09:29:36;;;;;;;3.60;2.88;;;;;;;25.24;59.14;98821.72;5078934;28;20090;-84
2023/08/08 09:32:20;;;;;;;3.20;2.90;;;;;;;25.48;58.88;98823.44;5079802;28;20036;-84
2023/08/08 09:35:07;;;;;;;6.32;2.90;;;;;;;25.51;59.93;98805.94;5080123;28;20039;-85
2023/08/08 09:37:54;;;;;;;4.47;3.05;;;;;;;25.90;59.26;98815.34;5083940;28;20509;-85
2023/08/08 09:40:38;;;;;;;3.95;3.08;;;;;;;25.93;59.05;98814.72;5080643;28;20149;-84
2023/08/08 09:43:24;;;;;;;3.65;3.10;;;;;;;25.78;59.05;98813.16;5080903;28;20047;-85
2023/08/08 09:46:08;;;;;;;3.50;3.20;;;;;;;26.41;58.87;98819.88;5076952;28;20046;-83
2023/08/08 09:48:53;;;;;;;5.13;3.40;;;;;;;26.32;59.29;98819.81;5082374;28;20039;-85
2023/08/08 09:51:37;;;;;;;4.18;2.90;;;;;;;25.75;58.92;98819.16;5079388;28;20100;-84
2023/08/08 09:54:23;;;;;;;4.70;3.13;;;;;;;25.76;60.12;98822.63;5074452;28;20073;-85
2023/08/08 09:57:07;;;;;;;3.00;2.80;;;;;;;26.04;58.58;98822.53;5080903;28;20071;-85
2023/08/08 09:59:52;;;;;;;3.45;2.70;;;;;;;26.63;59.35;98822.56;5079758;28;20401;-84
2023/08/08 10:02:37;;;;;;;3.30;3.00;;;;;;;26.93;57.65;98817.53;5079505;28;20401;-83
2023/08/08 10:05:21;;;;;;;2.65;2.45;;;;;;;27.25;56.83;98817.53;5078151;28;20516;-83
2023/08/08 10:08:06;;;;;;;4.82;2.97;;;;;;;26.67;56.55;98811.97;5085920;28;20059;-83
2023/08/08 10:10:50;;;;;;;2.60;2.40;;;;;;;26.70;56.68;98816.75;5083094;28;20092;-84
2023/08/08 10:13:35;;;;;;;3.78;2.42;;;;;;;25.86;57.66;98817.03;5076473;28;20090;-84
2023/08/08 10:16:20;;;;;;;3.55;2.50;;;;;;;25.64;57.76;98817.75;5082089;28;20454;-84
2023/08/08 10:19:05;;;;;;;3.75;2.53;;;;;;;25.42;59.03;98829.97;5077020;28;20043;-84
2023/08/08 10:21:57;;;;;;;3.88;2.42;;;;;;;25.92;58.43;98820.38;5079842;28;20039;-81
2023/08/08 10:24:41;;;;;;;2.75;2.55;;;;;;;26.32;58.00;98828.66;5076629;28;20102;-81
2023/08/08 10:27:32;;;;;;;2.72;2.50;;;;;;;26.55;57.46;98835.97;5079376;28;20043;-81
2023/08/08 10:30:16;;;;;;;2.78;2.58;;;;;;;26.85;57.08;98834.44;5080040;28;20093;-81
2023/08/08 10:33:01;;;;;;;2.95;2.65;;;;;;;25.71;57.96;98842.31;5080065;28;20059;-81
2023/08/08 10:35:57;;;;;;;3.60;3.08;;;;;;;25.90;58.26;98841.41;5086370;28;20043;-83
2023/08/08 10:38:50;;;;;;;3.97;3.00;;;;;;;25.56;59.15;98853.41;5085541;28;20043;-81
2023/08/08 10:41:45;;;;;;;3.47;2.83;;;;;;;26.27;58.21;98842.25;5085656;28;20501;-83
2023/08/08 10:44:29;;;;;;;3.47;2.78;;;;;;;26.08;58.58;98827.03;5086022;28;20078;-83
2023/08/08 10:47:13;;;;;;;3.85;2.80;;;;;;;25.90;58.32;98833.34;5082896;28;20083;-81
2023/08/08 10:50:22;;;;;;;3.72;2.80;;;;;;;26.09;58.63;98823.22;5077644;28;20039;-82
2023/08/08 10:53:10;;;;;;;4.10;3.00;;;;;;;26.31;57.72;98810.16;5084527;28;20092;-81
2023/08/08 10:56:02;;;;;;;5.22;3.22;;;;;;;26.21;58.10;98816.56;5079973;28;20089;-81
2023/08/08 10:58:49;;;;;;;2.90;2.65;;;;;;;26.63;56.96;98814.47;5084550;28;20121;-81
2023/08/08 11:01:34;;;;;;;3.25;2.83;;;;;;;26.34;57.45;98812.22;5081921;28;20111;-82
2023/08/08 11:04:21;;;;;;;2.80;2.58;;;;;;;26.65;57.48;98808.81;5078756;28;20035;-81
2023/08/08 11:07:05;;;;;;;3.83;2.65;;;;;;;25.84;57.07;98804.97;5086830;28;20182;-81
2023/08/08 11:09:49;;;;;;;2.83;2.63;;;;;;;25.70;57.27;98794.25;5089470;28;20119;-83
2023/08/08 11:12:34;;;;;;;5.10;3.10;;;;;;;26.27;56.64;98801.88;5081041;28;20089;-83
2023/08/08 11:15:18;;;;;;;5.05;3.03;;;;;;;27.34;55.90;98798.69;5090248;28;20101;-83
2023/08/08 11:18:03;;;;;;;4.97;2.95;;;;;;;27.50;55.64;98801.72;5083706;28;20093;-81
2023/08/08 11:20:48;;;;;;;4.03;2.80;;;;;;;28.54;54.42;98795.94;5084653;28;20038;-82
2023/08/08 11:23:37;;;;;;;3.80;2.70;;;;;;;29.13;53.56;98794.50;5088295;28;20405;-82
2023/08/08 11:26:22;;;;;;;3.30;2.90;;;;;;;28.95;52.92;98799.19;5082910;28;20059;-83
2023/08/08 11:29:07;;;;;;;3.40;2.88;;;;;;;28.96;52.31;98800.78;5086289;28;20079;-84
2023/08/08 11:31:51;;;;;;;2.90;2.60;;;;;;;27.63;53.69;98798.16;5085385;28;20088;-82
2023/08/08 11:34:35;;;;;;;5.28;3.25;;;;;;;28.01;54.05;98796.75;5082056;28;20093;-85
2023/08/08 11:37:20;;;;;;;4.18;2.80;;;;;;;28.03;53.91;98788.34;5086065;28;20063;-83
2023/08/08 11:40:05;;;;;;;3.30;3.00;;;;;;;28.61;54.06;98796.25;5083707;28;20105;-81
2023/08/08 11:42:51;;;;;;;5.43;3.20;;;;;;;28.58;53.22;98794.97;5086017;28;20156;-81
2023/08/08 11:45:35;;;;;;;4.82;3.50;;;;;;;28.63;53.82;98797.50;5082706;28;20039;-81
2023/08/08 11:48:21;;;;;;;4.30;3.30;;;;;;;29.45;53.09;98784.97;5084310;28;20115;-81
2023/08/08 11:51:09;;;;;;;5.03;3.40;;;;;;;28.86;52.53;98778.41;5082182;28;20098;-81
2023/08/08 11:53:54;;;;;;;6.00;3.20;;;;;;;28.36;53.53;98768.97;5082214;28;20046;-81
2023/08/08 11:56:38;;;;;;;7.22;3.58;;;;;;;27.85;54.15;98776.75;5084688;28;20397;-82
2023/08/08 11:59:23;;;;;;;5.78;3.60;;;;;;;27.49;55.61;98779.34;5091899;28;20034;-82
2023/08/08 12:02:09;;;;;;;4.20;3.33;;;;;;;27.37;55.85;98789.97;5082580;28;20166;-81
2023/08/08 12:04:53;;;;;;;4.13;3.00;;;;;;;27.76;54.98;98774.84;5087788;28;20502;-81
2023/08/08 12:07:41;;;;;;;6.85;3.40;;;;;;;28.23;54.48;98765.34;5087908;28;20509;-82
2023/08/08 12:10:26;;;;;;;3.85;3.40;;;;;;;28.42;54.75;98759.59;5085283;28;20230;-81
2023/08/08 12:13:10;;;;;;;5.80;3.80;;;;;;;28.02;54.41;98778.69;5082648;28;20101;-81
2023/08/08 12:15:58;;;;;;;6.57;3.78;;;;;;;28.38;54.75;98765.97;5082405;28;20044;-80
2023/08/08 12:18:43;;;;;;;5.50;4.28;;;;;;;27.87;54.96;98764.53;5089821;28;20043;-80
2023/08/08 12:21:27;;;;;;;6.07;3.90;;;;;;;28.62;53.61;98754.63;5089028;28;20051;-81
2023/08/08 12:24:11;;;;;;;4.57;3.70;;;;;;;28.72;53.56;98754.28;5087959;28;20043;-80
2023/08/08 12:26:55;;;;;;;7.65;3.60;;;;;;;29.07;52.76;98756.88;5084376;28;20039;-82
2023/08/08 12:29:39;;;;;;;7.05;3.65;;;;;;;29.04;51.67;98754.00;5081606;28;20399;-81
2023/08/08 12:32:28;;;;;;;4.03;3.58;;;;;;;29.59;50.53;98756.91;5085272;28;20063;-81
2023/08/08 12:35:12;;;;;;;5.60;4.30;;;;;;;29.91;51.24;98754.59;5084662;28;20079;-81
2023/08/08 12:37:56;;;;;;;5.45;4.43;;;;;;;30.75;51.25;98761.75;5088117;28;20050;-81
2023/08/08 12:40:40;;;;;;;5.00;4.50;;;;;;;30.46;50.87;98754.56;5084370;28;20043;-81
2023/08/08 12:43:25;;;;;;;8.38;5.18;;;;;;;30.18;50.39;98755.19;5093548;28;20042;-81
2023/08/08 12:46:09;;;;;;;6.00;5.40;;;;;;;30.53;50.39;98760.25;5082156;28;20117;-81
2023/08/08 12:48:53;;;;;;;6.80;5.18;;;;;;;30.63;49.77;98765.25;5080661;28;20046;-83
2023/08/08 12:51:37;;;;;;;7.13;4.80;;;;;;;30.81;50.60;98765.03;5074776;28;20039;-81
2023/08/08 12:54:22;;;;;;;10.45;5.07;;;;;;;31.32;50.82;98761.25;5079518;28;20126;-81
2023/08/08 12:57:06;;;;;;;4.28;3.95;;;;;;;30.38;49.66;98769.00;5082727;28;20093;-81